Time;durP1;ratioP1;P1;durP2;ratioP2;P2;SDS_P1;SDS_P2;PMS_P1;PMS_P2;Temp;Humidity;BMP_temperature;BMP_pressure;BME280_temperature;BME280_humidity;BME280_pressure;Samples;Min_cycle;Max_cycle;Signal;HPM_P1;HPM_P2
2022/10/10 00:00:36;;;;;;;4.13;2.80;;;13.00;99.90;;;;;;4953774;28;20187;-79
2022/10/10 00:03:02;;;;;;;4.75;2.70;;;13.00;99.90;;;;;;4959182;28;20213;-79
2022/10/10 00:05:27;;;;;;;4.20;2.90;;;13.00;99.90;;;;;;4964825;28;20163;-78
2022/10/10 00:07:53;;;;;;;6.30;2.70;;;12.90;99.90;;;;;;4975267;29;20175;-79
2022/10/10 00:10:18;;;;;;;3.67;2.80;;;12.80;99.90;;;;;;4972784;29;20179;-79
2022/10/10 00:12:44;;;;;;;4.38;2.38;;;12.90;99.90;;;;;;4958875;28;20213;-81
2022/10/10 00:15:12;;;;;;;4.57;2.83;;;13.00;99.90;;;;;;4958164;29;20174;-84
2022/10/10 00:17:39;;;;;;;9.63;3.63;;;12.90;99.90;;;;;;4958908;28;20173;-80
2022/10/10 00:20:05;;;;;;;5.63;3.20;;;13.00;99.90;;;;;;4956762;28;20194;-82
2022/10/10 00:22:31;;;;;;;9.05;3.53;;;12.90;99.90;;;;;;4958169;28;20183;-82
2022/10/10 00:24:57;;;;;;;7.07;3.92;;;12.80;99.90;;;;;;4956408;28;20266;-79
2022/10/10 00:27:23;;;;;;;4.70;3.33;;;12.60;99.90;;;;;;4957450;28;20201;-87
2022/10/10 00:29:48;;;;;;;5.30;3.45;;;12.60;99.90;;;;;;4957883;28;20257;-90
2022/10/10 00:32:14;;;;;;;10.55;3.47;;;12.60;99.90;;;;;;4955794;28;20576;-82
2022/10/10 00:34:39;;;;;;;9.05;3.40;;;12.80;99.90;;;;;;4956131;29;20175;-86
2022/10/10 00:37:05;;;;;;;4.05;3.10;;;12.60;99.90;;;;;;4956080;29;20526;-80
2022/10/10 00:39:31;;;;;;;6.43;3.38;;;12.60;99.90;;;;;;4956291;29;20197;-90
2022/10/10 00:41:56;;;;;;;6.18;3.63;;;12.50;99.90;;;;;;4957277;29;20190;-82
2022/10/10 00:44:22;;;;;;;6.22;3.47;;;12.50;99.90;;;;;;4957214;28;20523;-82
2022/10/10 00:46:47;;;;;;;10.18;2.95;;;12.50;99.90;;;;;;4955855;28;20182;-90
2022/10/10 00:49:19;;;;;;;5.32;3.38;;;12.60;99.90;;;;;;4957338;29;20170;-90
2022/10/10 00:51:47;;;;;;;11.77;3.45;;;12.60;99.90;;;;;;4956024;29;20214;-81
2022/10/10 00:54:15;;;;;;;16.05;3.50;;;12.50;99.90;;;;;;4957134;28;20163;-81
2022/10/10 00:56:47;;;;;;;7.57;3.03;;;12.50;99.90;;;;;;4955310;29;20248;-80
2022/10/10 00:59:14;;;;;;;5.80;3.58;;;12.60;99.90;;;;;;4956978;28;20198;-90
2022/10/10 01:01:40;;;;;;;6.15;3.15;;;12.50;99.90;;;;;;4955947;28;20209;-79
2022/10/10 01:04:26;;;;;;;4.35;3.55;;;12.40;99.90;;;;;;4956250;29;20178;-88
2022/10/10 01:06:52;;;;;;;7.28;3.50;;;12.40;99.90;;;;;;4956656;29;20179;-80
2022/10/10 01:09:17;;;;;;;7.32;3.60;;;12.50;99.90;;;;;;4956437;28;20188;-88
2022/10/10 01:11:58;;;;;;;7.85;3.45;;;12.50;99.90;;;;;;4955110;28;20218;-80
2022/10/10 01:14:37;;;;;;;12.13;3.08;;;12.60;99.90;;;;;;4955255;28;20190;-79
2022/10/10 01:17:05;;;;;;;7.43;3.50;;;12.50;99.90;;;;;;4955572;29;20162;-79
2022/10/10 01:19:40;;;;;;;10.43;3.90;;;12.60;99.90;;;;;;4956769;28;20172;-79
2022/10/10 01:22:05;;;;;;;5.13;3.00;;;12.50;99.90;;;;;;4955197;28;20194;-80
2022/10/10 01:24:43;;;;;;;7.43;4.22;;;12.60;99.90;;;;;;4955493;28;20691;-79
2022/10/10 01:27:35;;;;;;;5.93;3.17;;;12.30;99.90;;;;;;4956299;28;20170;-79
2022/10/10 01:30:05;;;;;;;6.75;3.78;;;12.30;99.90;;;;;;4951932;29;20210;-79
2022/10/10 01:32:55;;;;;;;5.80;3.63;;;12.40;99.90;;;;;;4955148;29;20341;-82
2022/10/10 01:36:18;;;;;;;7.15;3.15;;;12.50;99.90;;;;;;4956554;28;20205;-81
2022/10/10 01:39:17;;;;;;;6.93;3.20;;;12.30;99.90;;;;;;4881132;29;20281;-81
2022/10/10 01:41:51;;;;;;;5.30;2.95;;;12.30;99.90;;;;;;4897122;29;20542;-81
2022/10/10 01:44:17;;;;;;;15.13;3.67;;;12.30;99.90;;;;;;4941564;28;20708;-87
2022/10/10 01:46:42;;;;;;;9.95;3.80;;;12.20;99.90;;;;;;4954887;28;20183;-83
2022/10/10 01:49:08;;;;;;;6.50;3.45;;;12.20;99.90;;;;;;4955049;29;20689;-81
2022/10/10 01:51:53;;;;;;;9.50;2.85;;;12.30;99.90;;;;;;4956185;29;20269;-80
2022/10/10 01:54:41;;;;;;;5.30;3.47;;;12.30;99.90;;;;;;4956173;28;20169;-80
2022/10/10 01:57:30;;;;;;;5.07;3.17;;;12.30;99.90;;;;;;4955087;29;20225;-82
2022/10/10 02:00:07;;;;;;;23.45;3.28;;;12.30;99.90;;;;;;4955831;28;20190;-80
2022/10/10 02:02:48;;;;;;;6.07;3.13;;;12.30;99.90;;;;;;4955071;29;20549;-79
2022/10/10 02:05:16;;;;;;;7.43;2.97;;;12.20;99.90;;;;;;4954662;28;20230;-80
2022/10/10 02:08:05;;;;;;;15.40;3.45;;;12.30;99.90;;;;;;4953243;28;20212;-81
2022/10/10 02:10:34;;;;;;;6.40;3.22;;;12.30;99.90;;;;;;4969669;28;20177;-79
2022/10/10 02:13:01;;;;;;;5.00;2.72;;;12.40;99.90;;;;;;4955305;28;20206;-80
2022/10/10 02:15:36;;;;;;;5.57;2.75;;;12.30;99.90;;;;;;4955067;28;20548;-79
2022/10/10 02:18:05;;;;;;;11.32;3.58;;;12.30;99.90;;;;;;4954287;29;20178;-86
2022/10/10 02:20:32;;;;;;;8.40;2.90;;;12.30;99.90;;;;;;4954448;29;20175;-79
2022/10/10 02:22:58;;;;;;;6.78;3.17;;;12.40;99.90;;;;;;4955300;28;20182;-79
2022/10/10 02:25:30;;;;;;;4.88;3.55;;;12.30;99.90;;;;;;4954144;28;20171;-80
2022/10/10 02:28:11;;;;;;;7.00;2.90;;;12.20;99.90;;;;;;4954165;29;20194;-88
2022/10/10 02:30:43;;;;;;;6.28;2.80;;;12.20;99.90;;;;;;4955483;28;20171;-79
2022/10/10 02:33:12;;;;;;;10.00;2.75;;;12.20;99.90;;;;;;4954774;28;20227;-80
2022/10/10 02:35:41;;;;;;;5.10;3.53;;;12.20;99.90;;;;;;4959869;28;20185;-79
2022/10/10 02:38:10;;;;;;;6.07;3.20;;;12.20;99.90;;;;;;4973661;28;20167;-82
2022/10/10 02:40:38;;;;;;;5.00;3.15;;;12.20;99.90;;;;;;4970949;28;20186;-85
2022/10/10 02:43:06;;;;;;;9.27;2.95;;;12.30;99.90;;;;;;4955053;28;20186;-84
2022/10/10 02:45:33;;;;;;;15.25;3.38;;;12.10;99.90;;;;;;4954387;28;20170;-85
2022/10/10 02:48:00;;;;;;;7.00;2.95;;;12.10;99.90;;;;;;4953877;28;20261;-81
2022/10/10 02:50:27;;;;;;;6.95;3.35;;;12.10;99.90;;;;;;4955313;28;20167;-85
2022/10/10 02:52:52;;;;;;;6.22;3.17;;;12.10;99.90;;;;;;4955117;28;20297;-83
2022/10/10 02:55:18;;;;;;;8.35;3.30;;;12.10;99.90;;;;;;4955316;29;20573;-81
2022/10/10 02:57:43;;;;;;;5.07;3.33;;;12.10;99.90;;;;;;4955431;28;20179;-79
2022/10/10 03:00:10;;;;;;;4.15;3.42;;;12.10;99.90;;;;;;4955127;28;20277;-82
2022/10/10 03:02:35;;;;;;;8.77;3.63;;;11.90;99.90;;;;;;4955053;28;20182;-80
2022/10/10 03:05:01;;;;;;;6.05;3.47;;;11.80;99.90;;;;;;4954952;29;20178;-80
2022/10/10 03:07:26;;;;;;;8.68;3.35;;;11.80;99.90;;;;;;4953514;28;20174;-88
2022/10/10 03:09:52;;;;;;;4.43;3.25;;;11.80;99.90;;;;;;4953497;29;20174;-78
2022/10/10 03:12:18;;;;;;;3.97;2.70;;;11.90;99.90;;;;;;4954475;28;20564;-79
2022/10/10 03:14:45;;;;;;;4.20;3.08;;;12.00;99.90;;;;;;4953689;29;20173;-79
2022/10/10 03:17:10;;;;;;;7.88;3.67;;;11.80;99.90;;;;;;4955002;28;20166;-80
2022/10/10 03:19:36;;;;;;;5.47;3.30;;;11.80;99.90;;;;;;4954912;28;20166;-80
2022/10/10 03:22:02;;;;;;;3.20;2.78;;;11.90;99.90;;;;;;4954581;29;20186;-80
2022/10/10 03:24:27;;;;;;;6.35;3.38;;;11.70;99.90;;;;;;4953169;28;20637;-80
2022/10/10 03:26:53;;;;;;;5.78;3.17;;;11.80;99.90;;;;;;4954253;29;20198;-80
2022/10/10 03:29:19;;;;;;;5.07;3.38;;;11.70;99.90;;;;;;4953402;29;20187;-87
2022/10/10 03:31:44;;;;;;;21.30;4.10;;;11.80;99.90;;;;;;4953146;29;20214;-85
2022/10/10 03:34:10;;;;;;;14.05;3.75;;;11.80;99.90;;;;;;4954486;29;20171;-87
2022/10/10 03:36:35;;;;;;;3.60;3.30;;;11.70;99.90;;;;;;4957035;28;20170;-82
2022/10/10 03:39:01;;;;;;;5.68;3.75;;;11.70;99.90;;;;;;4956841;29;20174;-82
2022/10/10 03:41:27;;;;;;;7.30;3.28;;;11.70;99.90;;;;;;4956891;28;21216;-87
2022/10/10 03:43:53;;;;;;;7.72;3.80;;;11.70;99.90;;;;;;4959425;28;20703;-90
2022/10/10 03:46:19;;;;;;;7.97;3.75;;;11.70;99.90;;;;;;4974970;28;20209;-82
2022/10/10 03:48:45;;;;;;;5.35;3.47;;;11.70;99.90;;;;;;4975579;28;20577;-81
2022/10/10 03:51:11;;;;;;;5.82;3.80;;;11.70;99.90;;;;;;4975250;28;20338;-89
2022/10/10 03:53:36;;;;;;;7.80;3.63;;;11.70;99.90;;;;;;4975489;28;20169;-81
2022/10/10 03:56:02;;;;;;;6.97;4.00;;;11.70;99.90;;;;;;4977389;28;20181;-81
2022/10/10 03:58:28;;;;;;;6.03;3.92;;;11.70;99.90;;;;;;4977637;28;20166;-81
2022/10/10 04:00:55;;;;;;;14.15;7.45;;;11.70;99.90;;;;;;4977739;28;20194;-81
2022/10/10 04:03:21;;;;;;;10.93;5.10;;;11.60;99.90;;;;;;4976239;28;20641;-81
2022/10/10 04:05:46;;;;;;;5.78;3.63;;;11.60;99.90;;;;;;4978014;28;20272;-88
2022/10/10 04:08:12;;;;;;;7.45;3.80;;;11.60;99.90;;;;;;4977577;28;20193;-89
2022/10/10 04:10:38;;;;;;;11.95;3.75;;;11.60;99.90;;;;;;4976971;28;20183;-89
2022/10/10 04:13:03;;;;;;;10.82;4.32;;;11.60;99.90;;;;;;4975954;28;20221;-90
2022/10/10 04:15:30;;;;;;;8.68;3.67;;;11.60;99.90;;;;;;4977390;28;20170;-84
2022/10/10 04:17:56;;;;;;;6.28;3.63;;;11.70;99.90;;;;;;4976422;28;20201;-86
2022/10/10 04:20:21;;;;;;;8.15;3.15;;;11.70;99.90;;;;;;4976981;28;20225;-82
2022/10/10 04:22:47;;;;;;;6.75;3.78;;;11.70;99.90;;;;;;4975861;28;20201;-81
2022/10/10 04:25:13;;;;;;;6.65;3.72;;;11.60;99.90;;;;;;4975631;28;20166;-82
2022/10/10 04:27:38;;;;;;;6.47;3.47;;;11.60;99.90;;;;;;4976845;28;20594;-89
2022/10/10 04:30:05;;;;;;;4.70;3.53;;;11.50;99.90;;;;;;4975734;28;20577;-84
2022/10/10 04:32:31;;;;;;;8.93;4.20;;;11.60;99.90;;;;;;4975838;28;20237;-81
2022/10/10 04:34:57;;;;;;;10.10;4.07;;;11.60;99.90;;;;;;4976866;28;20640;-85
2022/10/10 04:37:22;;;;;;;6.70;4.15;;;11.60;99.90;;;;;;4975507;28;20260;-81
2022/10/10 04:39:48;;;;;;;11.68;4.13;;;11.60;99.90;;;;;;4976608;28;20629;-81
2022/10/10 04:42:14;;;;;;;7.60;4.97;;;11.60;99.90;;;;;;4976026;28;20198;-81
2022/10/10 04:44:40;;;;;;;5.68;3.80;;;11.70;99.90;;;;;;4975139;28;20173;-81
2022/10/10 04:47:06;;;;;;;6.93;4.13;;;11.70;99.90;;;;;;4974803;28;20178;-89
2022/10/10 04:49:31;;;;;;;8.05;4.15;;;11.60;99.90;;;;;;4974983;28;20540;-90
2022/10/10 04:51:57;;;;;;;3.05;2.85;;;11.50;99.90;;;;;;4975053;28;20217;-80
2022/10/10 04:54:22;;;;;;;6.50;4.18;;;11.50;99.90;;;;;;4976513;28;21209;-84
2022/10/10 04:56:48;;;;;;;8.48;3.75;;;11.50;99.90;;;;;;4975150;28;20174;-84
2022/10/10 04:59:14;;;;;;;5.75;4.13;;;11.60;99.90;;;;;;4974571;28;20166;-82
2022/10/10 05:01:39;;;;;;;8.52;4.68;;;11.60;99.90;;;;;;4976171;28;20225;-81
2022/10/10 05:04:05;;;;;;;4.50;3.83;;;11.60;99.90;;;;;;4974932;28;20173;-85
2022/10/10 05:06:31;;;;;;;5.75;4.70;;;11.70;99.90;;;;;;4979232;28;20170;-81
2022/10/10 05:08:57;;;;;;;12.43;4.20;;;11.60;99.90;;;;;;4988701;28;20259;-83
2022/10/10 05:11:22;;;;;;;14.55;4.30;;;11.60;99.90;;;;;;4995543;28;20225;-82
2022/10/10 05:13:51;;;;;;;7.88;3.97;;;11.60;99.90;;;;;;4979274;28;20253;-80
2022/10/10 05:16:17;;;;;;;5.22;3.67;;;11.50;99.90;;;;;;4975625;28;20193;-83
2022/10/10 05:18:42;;;;;;;5.88;3.70;;;11.40;99.90;;;;;;4975548;28;20170;-81
2022/10/10 05:21:10;;;;;;;5.32;3.35;;;11.30;99.90;;;;;;4976523;28;20186;-90
2022/10/10 05:23:37;;;;;;;10.45;3.80;;;11.40;99.90;;;;;;4975473;28;20539;-82
2022/10/10 05:26:02;;;;;;;6.03;3.47;;;11.20;99.90;;;;;;4976166;28;20580;-84
2022/10/10 05:28:28;;;;;;;9.60;4.32;;;11.30;99.90;;;;;;4974881;28;20204;-90
2022/10/10 05:30:54;;;;;;;6.68;4.57;;;11.40;99.90;;;;;;4975654;28;20236;-83
2022/10/10 05:33:19;;;;;;;6.65;3.80;;;11.40;99.90;;;;;;4974765;28;20206;-81
2022/10/10 05:35:45;;;;;;;12.63;3.45;;;11.50;99.90;;;;;;4974774;28;20174;-83
2022/10/10 05:38:11;;;;;;;6.38;3.80;;;11.40;99.90;;;;;;4974733;28;20174;-84
2022/10/10 05:40:40;;;;;;;14.85;3.95;;;11.50;99.90;;;;;;4974143;28;20162;-89
2022/10/10 05:43:06;;;;;;;14.30;5.43;;;11.50;99.90;;;;;;4975318;28;20204;-83
2022/10/10 05:45:31;;;;;;;6.63;4.28;;;11.40;99.90;;;;;;4973518;28;20248;-81
2022/10/10 05:47:57;;;;;;;7.78;4.03;;;11.50;99.90;;;;;;4975648;28;20174;-87
2022/10/10 05:50:47;;;;;;;5.30;4.00;;;11.60;99.90;;;;;;4975249;28;20707;-82
2022/10/10 05:53:13;;;;;;;9.52;4.97;;;11.40;99.90;;;;;;4973994;28;20190;-89
2022/10/10 05:55:38;;;;;;;10.00;4.82;;;11.40;99.90;;;;;;4973841;28;20613;-82
2022/10/10 05:58:05;;;;;;;6.38;5.20;;;11.50;99.90;;;;;;4974179;28;20166;-81
2022/10/10 06:00:31;;;;;;;7.85;4.20;;;11.40;99.90;;;;;;4974330;28;20197;-80
2022/10/10 06:02:57;;;;;;;7.18;3.67;;;11.40;99.90;;;;;;4973480;28;20198;-81
2022/10/10 06:05:23;;;;;;;9.23;5.00;;;11.50;99.90;;;;;;4973776;28;20202;-81
2022/10/10 06:07:49;;;;;;;5.65;3.97;;;11.50;99.90;;;;;;4974126;28;20702;-82
2022/10/10 06:10:14;;;;;;;18.45;4.43;;;11.40;99.90;;;;;;4975064;28;20260;-82
2022/10/10 06:12:40;;;;;;;6.15;4.70;;;11.40;99.90;;;;;;4974412;28;20202;-83
2022/10/10 06:15:06;;;;;;;10.82;5.40;;;11.50;99.90;;;;;;4974057;28;20172;-83
2022/10/10 06:17:31;;;;;;;7.32;4.82;;;11.50;99.90;;;;;;4973262;28;20704;-82
2022/10/10 06:19:57;;;;;;;7.05;5.07;;;11.50;99.90;;;;;;4974226;28;20248;-82
2022/10/10 06:22:23;;;;;;;10.13;5.80;;;11.50;99.90;;;;;;4975028;28;20205;-84
2022/10/10 06:24:48;;;;;;;19.17;5.00;;;11.60;99.90;;;;;;4973296;28;20268;-82
2022/10/10 06:27:14;;;;;;;12.88;4.15;;;11.50;99.90;;;;;;4974008;28;20298;-84
2022/10/10 06:29:39;;;;;;;5.40;3.85;;;11.60;99.90;;;;;;4976062;28;20174;-84
2022/10/10 06:32:05;;;;;;;10.68;4.43;;;11.50;99.90;;;;;;4973946;28;20264;-83
2022/10/10 06:34:31;;;;;;;9.57;4.10;;;11.40;99.90;;;;;;4973523;28;20289;-82
2022/10/10 06:36:56;;;;;;;13.15;5.00;;;11.50;99.90;;;;;;4975943;28;20193;-89
2022/10/10 06:39:22;;;;;;;13.15;4.85;;;11.70;99.90;;;;;;4970977;28;20184;-84
2022/10/10 06:41:48;;;;;;;14.35;4.72;;;11.90;99.90;;;;;;4970683;28;20190;-83
2022/10/10 06:44:16;;;;;;;25.40;4.13;;;11.90;99.90;;;;;;4974664;28;20169;-89
2022/10/10 06:46:41;;;;;;;11.30;4.70;;;12.00;99.90;;;;;;4973675;28;20174;-90
2022/10/10 06:49:07;;;;;;;12.93;5.40;;;12.10;99.90;;;;;;4960994;28;20265;-83
2022/10/10 06:51:34;;;;;;;14.27;4.68;;;12.20;99.90;;;;;;4957962;28;20685;-84
2022/10/10 06:54:00;;;;;;;12.10;5.18;;;12.30;99.90;;;;;;4958163;28;20205;-85
2022/10/10 06:56:26;;;;;;;9.65;4.78;;;12.30;99.90;;;;;;4971621;28;20632;-91
2022/10/10 06:58:52;;;;;;;9.65;4.43;;;12.40;99.90;;;;;;4962723;28;20206;-83
2022/10/10 07:01:21;;;;;;;17.20;4.07;;;12.60;99.90;;;;;;4971933;28;20836;-81
2022/10/10 07:03:47;;;;;;;14.98;4.90;;;12.60;99.90;;;;;;4964096;28;20193;-90
2022/10/10 07:06:14;;;;;;;14.68;5.38;;;12.70;99.90;;;;;;4975323;28;20636;-82
2022/10/10 07:08:40;;;;;;;15.65;4.68;;;12.60;99.90;;;;;;4966560;28;20221;-86
2022/10/10 07:11:16;;;;;;;8.25;4.78;;;12.70;99.90;;;;;;4967434;28;20198;-80
2022/10/10 07:13:56;;;;;;;9.45;5.00;;;12.80;99.90;;;;;;4983587;28;20200;-80
2022/10/10 07:16:22;;;;;;;6.78;4.63;;;12.90;99.90;;;;;;4964526;28;20325;-80
2022/10/10 07:18:49;;;;;;;11.27;4.85;;;13.00;99.90;;;;;;4963655;28;20187;-81
2022/10/10 07:21:15;;;;;;;14.80;4.97;;;13.00;99.90;;;;;;4965345;28;20225;-80
2022/10/10 07:23:40;;;;;;;9.35;5.35;;;13.20;99.90;;;;;;4962311;28;20173;-96
2022/10/10 07:26:38;;;;;;;19.08;5.15;;;13.30;99.90;;;;;;4981463;28;20171;-92
2022/10/10 07:29:05;;;;;;;15.15;4.60;;;13.30;99.90;;;;;;4975075;28;20182;-91
2022/10/10 07:31:32;;;;;;;7.32;4.88;;;13.50;99.90;;;;;;4962597;29;20346;-89
2022/10/10 07:33:59;;;;;;;13.55;4.85;;;13.60;99.90;;;;;;4975387;28;20657;-94
2022/10/10 07:36:47;;;;;;;6.10;4.35;;;13.70;99.90;;;;;;4984373;28;20178;-82
2022/10/10 07:39:40;;;;;;;18.15;4.72;;;13.90;99.90;;;;;;4991380;28;20640;-81
2022/10/10 07:42:09;;;;;;;9.48;4.18;;;14.00;99.90;;;;;;4997215;28;20206;-82
2022/10/10 07:44:35;;;;;;;6.70;4.75;;;14.30;99.90;;;;;;4995193;28;20197;-81
2022/10/10 07:47:00;;;;;;;10.13;5.85;;;14.50;99.90;;;;;;4990792;28;20555;-81
2022/10/10 07:49:26;;;;;;;6.22;4.28;;;14.60;99.90;;;;;;4985436;28;20162;-90
2022/10/10 07:51:51;;;;;;;9.68;4.13;;;14.70;99.90;;;;;;4980535;28;20265;-92
2022/10/10 07:54:17;;;;;;;9.63;3.60;;;14.80;99.90;;;;;;4981331;28;20170;-95
2022/10/10 07:56:43;;;;;;;7.97;4.10;;;14.70;99.90;;;;;;4976872;28;20205;-94
2022/10/10 07:59:08;;;;;;;6.03;3.65;;;14.60;99.90;;;;;;4977719;28;20170;-88
2022/10/10 08:01:42;;;;;;;10.82;3.50;;;14.60;99.90;;;;;;4994431;28;20260;-92
2022/10/10 08:04:28;;;;;;;8.93;4.20;;;14.70;99.90;;;;;;4991996;28;20185;-95
2022/10/10 08:06:54;;;;;;;7.72;3.88;;;14.90;99.90;;;;;;4978324;28;20656;-85
2022/10/10 08:09:19;;;;;;;13.95;4.07;;;14.80;99.90;;;;;;4972356;28;20178;-90
2022/10/10 08:11:45;;;;;;;6.30;3.92;;;14.80;99.90;;;;;;4965368;28;20268;-82
2022/10/10 08:14:10;;;;;;;6.00;3.72;;;15.00;99.90;;;;;;4970853;28;20276;-81
2022/10/10 08:35:30;;;;;;;6.85;3.72;;;14.80;99.90;;;;;;5108781;27;20587;-81
2022/10/10 08:37:55;;;;;;;10.20;3.42;;;16.10;99.90;;;;;;5108003;28;20166;-79
2022/10/10 08:40:22;;;;;;;6.65;3.50;;;16.30;99.90;;;;;;5109442;28;20604;-80
2022/10/10 08:42:51;;;;;;;5.35;3.10;;;16.60;99.90;;;;;;5108240;28;20866;-80
2022/10/10 08:45:23;;;;;;;15.35;3.67;;;17.00;99.90;;;;;;5108649;28;20185;-81
2022/10/10 08:48:01;;;;;;;10.20;3.58;;;17.20;99.90;;;;;;5109824;28;20191;-81
2022/10/10 08:50:32;;;;;;;8.05;2.95;;;17.10;99.90;;;;;;5109935;28;20219;-81
2022/10/10 08:52:58;;;;;;;12.10;3.78;;;17.30;99.90;;;;;;5109206;28;20196;-80
2022/10/10 08:55:32;;;;;;;13.52;3.03;;;17.10;99.90;;;;;;5109543;28;20268;-81
2022/10/10 08:58:29;;;;;;;11.40;3.67;;;17.10;99.90;;;;;;5108121;28;20638;-82
2022/10/10 09:01:19;;;;;;;8.45;3.60;;;17.10;99.90;;;;;;5109747;28;20686;-81
2022/10/10 09:03:50;;;;;;;9.05;3.35;;;17.10;99.90;;;;;;5107080;28;20252;-83
2022/10/10 09:06:22;;;;;;;7.13;2.95;;;17.10;99.90;;;;;;5106649;28;20238;-82
2022/10/10 09:09:04;;;;;;;6.15;3.78;;;17.00;99.90;;;;;;5107708;28;20652;-83
2022/10/10 09:11:33;;;;;;;7.38;3.20;;;16.80;99.90;;;;;;5113538;28;20177;-81
2022/10/10 09:14:43;;;;;;;6.20;3.65;;;16.60;99.90;;;;;;5109123;28;20223;-81
2022/10/10 09:17:19;;;;;;;5.95;3.63;;;16.50;99.90;;;;;;5110783;28;20173;-93
2022/10/10 09:20:16;;;;;;;11.93;3.42;;;16.40;99.90;;;;;;5109669;28;20176;-82
2022/10/10 09:23:28;;;;;;;14.98;3.63;;;16.30;99.90;;;;;;5108531;28;20310;-90
2022/10/10 09:26:10;;;;;;;8.90;3.58;;;16.30;99.90;;;;;;5115004;28;20173;-80
2022/10/10 09:28:45;;;;;;;8.75;3.08;;;16.10;99.90;;;;;;5121167;28;20176;-80
2022/10/10 09:31:17;;;;;;;12.07;3.47;;;16.20;99.90;;;;;;5130387;28;20161;-80
2022/10/10 09:33:49;;;;;;;11.43;2.75;;;16.30;99.90;;;;;;5117055;28;20297;-80
2022/10/10 09:36:20;;;;;;;10.35;3.45;;;16.50;99.90;;;;;;5108652;28;20203;-80
2022/10/10 09:38:54;;;;;;;4.63;2.88;;;16.70;99.90;;;;;;5105812;28;20166;-80
2022/10/10 09:41:42;;;;;;;13.65;3.35;;;16.80;99.90;;;;;;5100516;28;20215;-80
2022/10/10 09:44:13;;;;;;;14.45;4.05;;;16.90;99.90;;;;;;5095524;28;20170;-81
2022/10/10 09:46:39;;;;;;;8.15;3.15;;;17.00;99.90;;;;;;5094697;28;20243;-81
2022/10/10 09:49:05;;;;;;;9.23;2.72;;;17.00;99.90;;;;;;5095432;28;20162;-81
2022/10/10 09:51:31;;;;;;;7.88;3.70;;;17.00;99.90;;;;;;5096544;28;20174;-82
2022/10/10 09:53:58;;;;;;;6.95;3.38;;;17.00;99.90;;;;;;5097715;28;20212;-81
2022/10/10 09:56:37;;;;;;;15.48;2.88;;;17.10;99.90;;;;;;5096331;28;20625;-82
2022/10/10 09:59:02;;;;;;;14.40;3.40;;;17.20;99.90;;;;;;5094478;28;20202;-88
2022/10/10 10:01:33;;;;;;;15.27;2.88;;;17.20;99.90;;;;;;5094711;28;20607;-94
2022/10/10 10:04:16;;;;;;;6.25;2.33;;;17.40;99.90;;;;;;5095047;28;20174;-85
2022/10/10 10:06:44;;;;;;;5.63;2.80;;;17.60;99.90;;;;;;5095247;28;20555;-89
2022/10/10 10:09:21;;;;;;;11.48;5.35;;;17.90;99.90;;;;;;5094576;28;20673;-88
2022/10/10 10:11:54;;;;;;;7.15;3.05;;;18.10;99.90;;;;;;5078307;28;20170;-81
2022/10/10 10:14:29;;;;;;;6.63;3.10;;;18.30;99.90;;;;;;5093649;28;20296;-83
2022/10/10 10:17:12;;;;;;;5.55;2.70;;;18.20;99.90;;;;;;5095294;28;20168;-81
2022/10/10 10:19:40;;;;;;;10.10;2.72;;;18.20;99.90;;;;;;5095689;28;20201;-81
2022/10/10 10:22:36;;;;;;;9.15;2.85;;;18.20;99.90;;;;;;5095512;28;20170;-81
2022/10/10 10:25:33;;;;;;;13.93;3.72;;;18.10;99.90;;;;;;5096426;28;20200;-93
2022/10/10 10:28:45;;;;;;;10.95;3.25;;;18.10;99.90;;;;;;5098866;28;20154;-86
2022/10/10 10:31:38;;;;;;;7.03;2.53;;;18.30;99.90;;;;;;5117959;28;20157;-92
2022/10/10 10:34:29;;;;;;;7.18;2.60;;;18.40;99.90;;;;;;5099007;28;20216;-95
2022/10/10 10:37:17;;;;;;;3.90;2.50;;;18.60;99.90;;;;;;5096721;28;20166;-92
2022/10/10 10:40:20;;;;;;;10.93;2.63;;;18.50;99.90;;;;;;5095315;28;20646;-82
2022/10/10 10:43:07;;;;;;;5.10;2.80;;;18.50;99.90;;;;;;5095255;28;20173;-81
2022/10/10 10:45:57;;;;;;;7.40;3.22;;;18.50;99.90;;;;;;5093020;28;20189;-81
2022/10/10 10:48:28;;;;;;;8.85;2.97;;;18.50;99.90;;;;;;5093939;28;20261;-82
2022/10/10 10:50:55;;;;;;;11.55;2.65;;;18.60;99.90;;;;;;5093985;28;20702;-83
2022/10/10 10:53:27;;;;;;;10.68;2.50;;;18.80;99.90;;;;;;5093497;28;20213;-91
2022/10/10 10:56:15;;;;;;;10.50;3.40;;;18.80;99.90;;;;;;5096030;28;20655;-94
2022/10/10 10:58:44;;;;;;;8.52;2.45;;;18.80;99.90;;;;;;5094767;28;20223;-90
2022/10/10 11:01:26;;;;;;;8.82;2.40;;;18.80;99.90;;;;;;5097580;28;20166;-89
2022/10/10 11:04:00;;;;;;;18.85;2.25;;;19.00;99.90;;;;;;5096421;28;20172;-94
2022/10/10 11:06:39;;;;;;;19.20;2.90;;;19.20;99.90;;;;;;5096402;28;20207;-85
2022/10/10 11:09:12;;;;;;;5.53;3.75;;;19.30;99.90;;;;;;5093821;28;20188;-82
2022/10/10 11:12:02;;;;;;;5.22;2.40;;;19.30;99.90;;;;;;5092075;28;20174;-83
2022/10/10 11:14:46;;;;;;;3.70;2.08;;;19.40;99.90;;;;;;5092213;28;20220;-84
2022/10/10 11:17:27;;;;;;;12.13;2.45;;;19.60;99.90;;;;;;5092622;28;20169;-88
2022/10/10 11:20:05;;;;;;;4.13;2.13;;;19.90;99.90;;;;;;5093365;28;20166;-82
2022/10/10 11:22:42;;;;;;;10.38;2.33;;;20.20;99.90;;;;;;5092393;28;20165;-80
2022/10/10 11:25:20;;;;;;;7.50;2.38;;;20.10;99.90;;;;;;5092318;28;20219;-87
2022/10/10 11:27:57;;;;;;;12.48;2.55;;;19.90;99.90;;;;;;5093277;28;20177;-86
2022/10/10 11:30:24;;;;;;;11.65;2.67;;;19.80;99.90;;;;;;5092262;28;20259;-87
2022/10/10 11:33:25;;;;;;;5.30;2.35;;;19.60;99.90;;;;;;5092874;28;20247;-84
2022/10/10 11:36:31;;;;;;;10.32;2.55;;;19.60;99.90;;;;;;5071543;28;20231;-84
2022/10/10 11:39:09;;;;;;;8.15;3.00;;;19.60;99.90;;;;;;5079110;28;20208;-82
2022/10/10 11:41:50;;;;;;;7.75;2.60;;;19.80;99.90;;;;;;5095892;28;20248;-91
2022/10/10 11:44:30;;;;;;;9.18;2.63;;;19.80;99.90;;;;;;5093471;28;20162;-82
2022/10/10 11:47:25;;;;;;;6.55;2.20;;;19.90;99.90;;;;;;5092717;28;20182;-83
2022/10/10 11:49:55;;;;;;;23.13;5.97;;;19.80;99.90;;;;;;5092332;28;20611;-82
2022/10/10 11:52:36;;;;;;;20.20;3.60;;;19.50;99.90;;;;;;5091725;28;20231;-82
2022/10/10 11:55:09;;;;;;;6.97;2.03;;;19.50;99.90;;;;;;5094115;28;20202;-83
2022/10/10 11:57:51;;;;;;;16.83;3.60;;;19.60;99.90;;;;;;5102288;28;20184;-82
2022/10/10 12:00:17;;;;;;;5.10;2.33;;;19.70;99.90;;;;;;5115255;28;20146;-80
2022/10/10 12:02:45;;;;;;;4.75;2.42;;;19.90;99.90;;;;;;5100127;28;20170;-80
2022/10/10 12:05:26;;;;;;;10.85;2.47;;;19.90;99.90;;;;;;5092622;28;20185;-79
2022/10/10 12:08:17;;;;;;;8.75;3.42;;;19.80;99.90;;;;;;5093941;28;20212;-82
2022/10/10 12:10:52;;;;;;;8.15;3.20;;;20.00;99.90;;;;;;5092117;28;20178;-85
2022/10/10 12:13:30;;;;;;;8.10;4.47;;;20.00;99.90;;;;;;5093875;28;20209;-80
2022/10/10 12:16:00;;;;;;;7.93;3.78;;;20.30;99.90;;;;;;5092147;28;20258;-81
2022/10/10 12:18:49;;;;;;;8.77;3.58;;;20.30;99.90;;;;;;5092208;28;20196;-81
2022/10/10 12:21:20;;;;;;;9.85;3.70;;;20.30;99.90;;;;;;5093855;28;20177;-84
2022/10/10 12:24:00;;;;;;;6.85;3.17;;;20.20;99.90;;;;;;5092157;28;20224;-93
2022/10/10 12:26:51;;;;;;;10.07;3.85;;;20.20;99.90;;;;;;5093563;28;20182;-80
2022/10/10 12:29:41;;;;;;;13.55;3.90;;;20.10;99.90;;;;;;5093232;28;20256;-87
2022/10/10 12:32:38;;;;;;;17.92;3.83;;;20.20;99.90;;;;;;5093784;28;20158;-92
2022/10/10 12:35:27;;;;;;;8.45;4.22;;;20.30;99.90;;;;;;5092903;28;20221;-82
2022/10/10 12:38:04;;;;;;;3.90;3.50;;;20.20;99.90;;;;;;5091893;28;20257;-82
2022/10/10 12:40:54;;;;;;;7.78;3.78;;;20.10;99.90;;;;;;5091958;28;20184;-92
2022/10/10 12:43:25;;;;;;;12.18;3.90;;;20.10;99.90;;;;;;5092171;28;20238;-92
2022/10/10 12:46:13;;;;;;;8.15;3.58;;;20.30;99.90;;;;;;5091445;28;20275;-81
2022/10/10 12:48:39;;;;;;;5.88;3.65;;;20.60;99.90;;;;;;5092589;28;20608;-81
2022/10/10 12:51:05;;;;;;;13.27;4.70;;;20.60;99.90;;;;;;5091421;28;20635;-80
2022/10/10 12:53:33;;;;;;;11.73;3.90;;;20.50;99.90;;;;;;5090848;28;20193;-89
2022/10/10 12:56:02;;;;;;;9.50;3.10;;;20.20;99.90;;;;;;5091545;28;20277;-88
2022/10/10 12:58:39;;;;;;;7.88;4.00;;;20.40;99.90;;;;;;5094365;28;20200;-92
2022/10/10 13:01:27;;;;;;;5.55;3.30;;;20.50;99.90;;;;;;5092322;28;20177;-92
2022/10/10 13:03:54;;;;;;;5.82;3.72;;;20.40;99.90;;;;;;5091627;28;20231;-92
2022/10/10 13:06:20;;;;;;;8.60;3.22;;;20.30;99.90;;;;;;5092873;28;20177;-83
2022/10/10 13:08:46;;;;;;;9.35;3.80;;;20.30;99.90;;;;;;5091469;28;20293;-87
2022/10/10 13:11:14;;;;;;;7.65;3.50;;;20.30;99.90;;;;;;5096827;28;20174;-90
2022/10/10 13:13:48;;;;;;;3.85;3.00;;;19.90;99.90;;;;;;5095204;28;20413;-82
2022/10/10 13:16:17;;;;;;;18.60;3.83;;;19.90;99.90;;;;;;5095563;28;20204;-81
2022/10/10 13:18:57;;;;;;;10.63;3.50;;;20.10;99.90;;;;;;5096086;28;20623;-80
2022/10/10 13:21:26;;;;;;;9.50;3.75;;;19.90;99.90;;;;;;5095493;28;20180;-90
2022/10/10 13:23:57;;;;;;;16.20;3.92;;;19.70;99.90;;;;;;5096031;28;20643;-81
2022/10/10 13:26:31;;;;;;;7.95;3.38;;;19.70;99.90;;;;;;5099632;28;20564;-81